Time;durP1;ratioP1;P1;durP2;ratioP2;P2;SDS_P1;SDS_P2;PMS_P1;PMS_P2;Temp;Humidity;BMP_temperature;BMP_pressure;BME280_temperature;BME280_humidity;BME280_pressure;Samples;Min_cycle;Max_cycle;Signal;HPM_P1;HPM_P2
2022/10/29 00:00:56;;;;;;;19.48;12.10;;;17.80;1.00;;;;;;5045487;28;20098;-57
2022/10/29 00:03:37;;;;;;;21.63;11.73;;;17.80;1.00;;;;;;5052058;28;20111;-59
2022/10/29 00:06:06;;;;;;;18.35;11.95;;;17.70;1.00;;;;;;5055365;28;20025;-59
2022/10/29 00:08:33;;;;;;;21.70;11.65;;;17.70;1.00;;;;;;5053716;28;20413;-60
2022/10/29 00:11:17;;;;;;;18.00;12.07;;;17.80;1.00;;;;;;5051487;28;20556;-59
2022/10/29 00:13:44;;;;;;;20.20;12.70;;;17.70;1.00;;;;;;5054358;28;20028;-60
2022/10/29 00:16:19;;;;;;;25.25;13.25;;;17.70;1.00;;;;;;5049398;28;20047;-58
2022/10/29 00:18:45;;;;;;;20.52;13.07;;;17.70;1.00;;;;;;5053303;28;20060;-60
2022/10/29 00:21:16;;;;;;;20.92;12.00;;;17.70;1.00;;;;;;5051544;28;20021;-58
2022/10/29 00:23:43;;;;;;;19.48;13.73;;;17.60;1.00;;;;;;5050561;28;20066;-59
2022/10/29 00:26:08;;;;;;;20.45;12.52;;;17.60;1.00;;;;;;5048379;28;20521;-60
2022/10/29 00:28:34;;;;;;;17.83;12.00;;;17.60;1.00;;;;;;5050876;28;20037;-58
2022/10/29 00:31:10;;;;;;;20.40;11.98;;;17.60;1.00;;;;;;5045137;28;20115;-59
2022/10/29 00:33:36;;;;;;;19.33;11.95;;;17.60;1.00;;;;;;5048459;28;20082;-59
2022/10/29 00:36:05;;;;;;;19.20;12.68;;;17.50;1.00;;;;;;5050871;28;20033;-60
2022/10/29 00:38:32;;;;;;;17.80;12.43;;;17.60;1.00;;;;;;5059393;28;20079;-60
2022/10/29 00:40:58;;;;;;;23.27;13.60;;;17.50;1.00;;;;;;5047757;28;20025;-59
2022/10/29 00:43:25;;;;;;;20.60;13.10;;;17.60;1.00;;;;;;5053159;28;20036;-60
2022/10/29 00:46:02;;;;;;;20.33;12.10;;;17.50;1.00;;;;;;5049674;28;20064;-60
2022/10/29 00:48:32;;;;;;;23.98;13.23;;;17.50;1.00;;;;;;5048942;28;20029;-60
2022/10/29 00:51:02;;;;;;;17.17;12.88;;;17.50;1.00;;;;;;5053675;28;20037;-59
2022/10/29 00:53:32;;;;;;;17.20;12.18;;;17.50;1.00;;;;;;5050622;28;20100;-59
2022/10/29 00:55:59;;;;;;;20.30;13.82;;;17.50;1.00;;;;;;5047856;28;20029;-58
2022/10/29 00:58:24;;;;;;;21.35;12.48;;;17.50;1.00;;;;;;5054185;28;20127;-59
2022/10/29 01:00:50;;;;;;;21.10;12.70;;;17.40;1.00;;;;;;5051433;28;20119;-60
2022/10/29 01:03:16;;;;;;;18.30;12.90;;;17.40;1.00;;;;;;5051865;28;20017;-60
2022/10/29 01:05:43;;;;;;;22.80;14.02;;;17.40;1.00;;;;;;5053252;28;20354;-59
2022/10/29 01:08:09;;;;;;;19.58;12.25;;;17.40;1.00;;;;;;5061697;28;20021;-60
2022/10/29 01:10:47;;;;;;;19.92;12.05;;;17.40;1.00;;;;;;5050219;28;20701;-60
2022/10/29 01:13:24;;;;;;;23.13;14.23;;;17.40;1.00;;;;;;5052825;28;20025;-60
2022/10/29 01:16:17;;;;;;;17.88;12.95;;;17.40;1.00;;;;;;5049910;28;20025;-58
2022/10/29 01:18:48;;;;;;;22.60;13.55;;;17.40;1.00;;;;;;5049917;28;20040;-60
2022/10/29 01:21:41;;;;;;;20.60;12.93;;;17.40;1.00;;;;;;5050727;28;20025;-60
2022/10/29 01:24:34;;;;;;;18.80;13.93;;;17.40;1.00;;;;;;5064946;28;20029;-60
2022/10/29 01:27:36;;;;;;;21.42;13.45;;;17.40;1.00;;;;;;5048648;28;20505;-60
2022/10/29 01:30:28;;;;;;;26.27;13.02;;;17.40;1.00;;;;;;5051265;28;20108;-60
2022/10/29 01:33:15;;;;;;;20.52;14.07;;;17.40;1.00;;;;;;5051220;28;20025;-60
2022/10/29 01:35:55;;;;;;;22.05;14.15;;;17.30;1.00;;;;;;5048882;28;20037;-60
2022/10/29 01:39:01;;;;;;;21.13;13.55;;;17.30;1.00;;;;;;5052225;28;20059;-60
2022/10/29 01:41:56;;;;;;;18.45;13.05;;;17.30;1.00;;;;;;5052239;28;20462;-60
2022/10/29 01:44:24;;;;;;;19.83;13.55;;;17.30;1.00;;;;;;5044678;28;20036;-60
2022/10/29 01:47:02;;;;;;;21.58;13.85;;;17.30;1.00;;;;;;5047169;28;20123;-60
2022/10/29 01:49:34;;;;;;;18.33;13.02;;;17.30;1.00;;;;;;5051606;28;20024;-60
2022/10/29 01:52:03;;;;;;;16.45;12.18;;;17.30;1.00;;;;;;5046814;28;20080;-59
2022/10/29 01:54:28;;;;;;;21.17;13.90;;;17.30;1.00;;;;;;5053627;28;20471;-60
2022/10/29 01:56:55;;;;;;;22.00;13.48;;;17.20;1.00;;;;;;5049632;28;20044;-59
2022/10/29 01:59:22;;;;;;;20.05;13.75;;;17.20;1.00;;;;;;5050374;28;20063;-60
2022/10/29 02:02:18;;;;;;;22.80;14.20;;;17.20;1.00;;;;;;5047724;28;20037;-59
2022/10/29 02:04:58;;;;;;;;;;;17.20;1.00;;;;;;5052984;28;20375;-60
2022/10/29 02:07:44;;;;;;;19.25;13.38;;;17.20;1.00;;;;;;5047424;28;19917;-60
2022/10/29 02:10:26;;;;;;;18.42;14.15;;;17.20;1.00;;;;;;5046646;28;20039;-60
2022/10/29 02:12:53;;;;;;;16.52;12.13;;;17.20;1.00;;;;;;5050241;28;20079;-59
2022/10/29 02:15:44;;;;;;;20.42;13.43;;;17.10;1.00;;;;;;5050248;28;20478;-60
2022/10/29 02:18:10;;;;;;;18.90;13.05;;;17.20;1.00;;;;;;5049584;28;20043;-60
2022/10/29 02:20:41;;;;;;;20.83;13.45;;;17.20;1.00;;;;;;5047986;28;20100;-60
2022/10/29 02:23:07;;;;;;;21.05;12.43;;;17.20;1.00;;;;;;5045964;28;20025;-59
2022/10/29 02:25:32;;;;;;;18.77;13.32;;;17.10;1.00;;;;;;5052520;28;20462;-60
2022/10/29 02:27:58;;;;;;;20.42;12.32;;;17.10;1.00;;;;;;5049459;28;20108;-60
2022/10/29 02:30:23;;;;;;;16.25;12.38;;;17.10;1.00;;;;;;5051285;28;20021;-60
2022/10/29 02:32:49;;;;;;;18.58;12.68;;;17.10;1.00;;;;;;5046582;28;20059;-60
2022/10/29 02:35:15;;;;;;;16.15;12.10;;;17.10;1.00;;;;;;5045812;28;20035;-60
2022/10/29 02:37:40;;;;;;;18.75;12.70;;;17.10;1.00;;;;;;5052342;28;20029;-59
2022/10/29 02:40:06;;;;;;;17.92;11.48;;;17.10;1.00;;;;;;5051227;28;20021;-59
2022/10/29 02:42:32;;;;;;;21.15;12.25;;;17.10;1.00;;;;;;5051204;28;20052;-60
2022/10/29 02:44:58;;;;;;;18.33;12.68;;;17.10;1.00;;;;;;5052395;28;20052;-59
2022/10/29 02:47:23;;;;;;;19.30;13.82;;;17.10;1.00;;;;;;5048768;28;20554;-60
2022/10/29 02:53:37;;;;;;;20.30;13.57;;;17.00;1.00;;;;;;5048608;28;20055;-60
2022/10/29 02:56:03;;;;;;;18.02;11.85;;;17.00;1.00;;;;;;5047876;28;20083;-60
2022/10/29 02:58:29;;;;;;;18.13;12.90;;;17.00;1.00;;;;;;5052102;28;20075;-60
2022/10/29 03:00:54;;;;;;;21.15;12.95;;;17.10;1.00;;;;;;5051506;28;20108;-60
2022/10/29 03:03:20;;;;;;;19.98;12.13;;;17.00;1.00;;;;;;5052367;28;20386;-60
2022/10/29 03:05:46;;;;;;;19.60;13.57;;;17.00;1.00;;;;;;5055223;28;20036;-60
2022/10/29 03:08:12;;;;;;;18.80;12.23;;;17.00;1.00;;;;;;5052881;28;20025;-60
2022/10/29 03:10:38;;;;;;;20.42;12.38;;;17.00;1.00;;;;;;5051842;28;20025;-60
2022/10/29 03:13:04;;;;;;;18.08;12.32;;;17.00;1.00;;;;;;5055987;28;20055;-60
2022/10/29 03:15:30;;;;;;;15.70;12.07;;;17.00;1.00;;;;;;5054215;28;20029;-59
2022/10/29 03:17:55;;;;;;;20.05;12.27;;;17.00;1.00;;;;;;5047395;28;20076;-60
2022/10/29 03:20:21;;;;;;;15.85;12.23;;;16.90;1.00;;;;;;5051659;28;20028;-60
2022/10/29 03:22:47;;;;;;;18.42;12.43;;;16.90;1.00;;;;;;5053207;28;20494;-59
2022/10/29 03:25:12;;;;;;;15.30;11.88;;;16.90;1.00;;;;;;5053186;28;20043;-60
2022/10/29 03:27:42;;;;;;;17.45;12.77;;;16.90;1.00;;;;;;5056556;28;20040;-60
2022/10/29 03:30:13;;;;;;;18.48;11.55;;;16.90;1.00;;;;;;5052598;28;20494;-60
2022/10/29 03:32:40;;;;;;;17.55;12.25;;;16.90;1.00;;;;;;5052124;28;20104;-60
2022/10/29 03:35:07;;;;;;;19.17;12.70;;;16.80;1.00;;;;;;5053198;28;20115;-60
2022/10/29 03:37:33;;;;;;;20.15;12.50;;;16.90;1.00;;;;;;5055063;28;20487;-60
2022/10/29 03:39:58;;;;;;;17.83;12.73;;;16.80;1.00;;;;;;5048987;28;20025;-59
2022/10/29 03:42:24;;;;;;;21.90;12.55;;;16.80;1.00;;;;;;5055587;28;20032;-60
2022/10/29 03:44:49;;;;;;;21.58;13.68;;;16.80;1.00;;;;;;5054633;28;20036;-60
2022/10/29 03:47:15;;;;;;;22.02;12.73;;;16.80;1.00;;;;;;5051595;28;20040;-60
2022/10/29 03:49:40;;;;;;;25.80;13.60;;;16.80;1.00;;;;;;5054846;28;20031;-60
2022/10/29 03:52:06;;;;;;;17.25;13.13;;;16.80;1.00;;;;;;5053137;28;20148;-60
2022/10/29 03:54:32;;;;;;;17.35;12.70;;;16.80;1.00;;;;;;5052901;28;20040;-60
2022/10/29 03:56:57;;;;;;;20.73;13.23;;;16.80;1.00;;;;;;5051759;28;20037;-60
2022/10/29 03:59:23;;;;;;;16.02;11.52;;;16.80;1.00;;;;;;5061741;28;20189;-60
2022/10/29 04:01:48;;;;;;;18.98;12.07;;;16.80;1.00;;;;;;5052498;28;20028;-60
2022/10/29 04:04:14;;;;;;;22.98;12.15;;;16.70;1.00;;;;;;5051123;28;20028;-60
2022/10/29 04:06:39;;;;;;;19.65;12.25;;;16.70;1.00;;;;;;5048505;28;20171;-60
2022/10/29 04:09:05;;;;;;;19.27;12.50;;;16.70;1.00;;;;;;5054373;28;20063;-60
2022/10/29 04:11:31;;;;;;;18.10;12.45;;;16.70;1.00;;;;;;5055723;28;20112;-60
2022/10/29 04:13:56;;;;;;;20.67;12.68;;;16.70;1.00;;;;;;5051475;28;20071;-60
2022/10/29 04:16:22;;;;;;;19.70;12.90;;;16.60;1.00;;;;;;5048211;28;20127;-60
2022/10/29 04:18:48;;;;;;;22.30;11.40;;;16.60;1.00;;;;;;5055908;28;20033;-60
2022/10/29 04:21:15;;;;;;;18.42;11.90;;;16.70;1.00;;;;;;5049882;28;20033;-60
2022/10/29 04:23:42;;;;;;;20.25;11.65;;;16.60;1.00;;;;;;5053982;28;20057;-60
2022/10/29 04:26:08;;;;;;;16.48;11.05;;;16.70;1.00;;;;;;5053389;28;20087;-60
2022/10/29 04:28:33;;;;;;;18.98;11.38;;;16.70;1.00;;;;;;5049723;28;20025;-60
2022/10/29 04:31:06;;;;;;;17.17;11.73;;;16.60;1.00;;;;;;5048961;28;20044;-61
2022/10/29 04:33:32;;;;;;;15.50;11.00;;;16.60;1.00;;;;;;5053184;28;20048;-59
2022/10/29 04:35:58;;;;;;;16.60;11.80;;;16.60;1.00;;;;;;5051430;28;20029;-59
2022/10/29 04:38:23;;;;;;;15.10;10.50;;;16.60;1.00;;;;;;5055245;28;20035;-59
2022/10/29 04:40:49;;;;;;;16.17;10.38;;;16.60;1.00;;;;;;5051007;28;20017;-59
2022/10/29 04:43:15;;;;;;;16.20;10.55;;;16.60;1.00;;;;;;5053404;28;20025;-60
2022/10/29 04:45:40;;;;;;;17.23;10.15;;;16.60;1.00;;;;;;5052235;28;20402;-60
2022/10/29 04:48:06;;;;;;;15.27;9.93;;;16.60;1.00;;;;;;5052864;28;20096;-60
2022/10/29 04:50:35;;;;;;;14.20;8.45;;;16.50;1.00;;;;;;5050156;28;20485;-60
2022/10/29 04:53:03;;;;;;;12.85;8.10;;;16.50;1.00;;;;;;5050586;28;20112;-60
2022/10/29 04:55:29;;;;;;;9.40;8.05;;;16.50;1.00;;;;;;5052336;28;20037;-60
2022/10/29 04:57:54;;;;;;;15.82;9.30;;;16.50;1.00;;;;;;5045583;28;20043;-60
2022/10/29 05:00:21;;;;;;;13.60;8.93;;;16.40;1.00;;;;;;5052691;28;20029;-60
2022/10/29 05:02:48;;;;;;;14.75;9.65;;;16.40;1.00;;;;;;5065998;28;20093;-60
2022/10/29 05:05:15;;;;;;;12.43;9.15;;;16.40;1.00;;;;;;5049912;28;20104;-60
2022/10/29 05:07:41;;;;;;;13.38;9.95;;;16.40;1.00;;;;;;5050524;28;20041;-60
2022/10/29 05:10:07;;;;;;;12.88;8.75;;;16.40;1.00;;;;;;5048485;28;20037;-60
2022/10/29 05:12:32;;;;;;;17.40;9.95;;;16.40;1.00;;;;;;5052863;28;20039;-60
2022/10/29 05:14:58;;;;;;;13.25;8.80;;;16.40;1.00;;;;;;5054472;28;20032;-60
2022/10/29 05:17:23;;;;;;;13.73;9.35;;;16.30;1.00;;;;;;5051635;28;20051;-60
2022/10/29 05:19:49;;;;;;;14.20;9.63;;;16.40;1.00;;;;;;5052549;28;20025;-59
2022/10/29 05:22:14;;;;;;;13.85;9.32;;;16.40;1.00;;;;;;5052920;28;20029;-60
2022/10/29 05:24:40;;;;;;;12.20;8.68;;;16.30;1.00;;;;;;5050616;28;20033;-59
2022/10/29 05:27:06;;;;;;;16.00;8.45;;;16.30;1.00;;;;;;5049311;28;20049;-59
2022/10/29 05:29:31;;;;;;;14.45;9.40;;;16.30;1.00;;;;;;5052654;28;20036;-59
2022/10/29 05:31:57;;;;;;;13.90;9.10;;;16.30;1.00;;;;;;5050293;28;20442;-59
2022/10/29 05:34:23;;;;;;;15.45;9.15;;;16.30;1.00;;;;;;5047583;28;20035;-60
2022/10/29 05:36:48;;;;;;;13.02;9.00;;;16.30;1.00;;;;;;5052932;28;20032;-60
2022/10/29 05:39:14;;;;;;;14.82;9.10;;;16.30;1.00;;;;;;5048445;28;20120;-59
2022/10/29 05:41:40;;;;;;;11.10;8.38;;;16.30;1.00;;;;;;5052105;28;20099;-59
2022/10/29 05:44:06;;;;;;;14.18;8.82;;;16.30;1.00;;;;;;5049964;28;20052;-59
2022/10/29 05:46:31;;;;;;;14.90;9.05;;;16.30;1.00;;;;;;5050975;28;20037;-59
2022/10/29 05:48:57;;;;;;;11.88;8.98;;;16.30;1.00;;;;;;5052118;28;20360;-59
2022/10/29 05:51:22;;;;;;;12.02;8.57;;;16.30;1.00;;;;;;5052893;28;20358;-60
2022/10/29 05:53:48;;;;;;;11.38;8.77;;;16.30;1.00;;;;;;5046951;28;20104;-59
2022/10/29 05:56:14;;;;;;;15.68;9.18;;;16.30;1.00;;;;;;5048344;28;20429;-59
2022/10/29 05:58:39;;;;;;;13.93;8.95;;;16.30;1.00;;;;;;5049764;28;20033;-59
2022/10/29 06:01:09;;;;;;;14.18;9.80;;;16.30;1.00;;;;;;5049747;28;20026;-59
2022/10/29 06:03:36;;;;;;;14.13;9.30;;;16.30;1.00;;;;;;5046953;28;20104;-58
2022/10/29 06:06:01;;;;;;;12.88;8.48;;;16.30;1.00;;;;;;5044606;28;20044;-59
2022/10/29 06:08:27;;;;;;;18.40;10.32;;;16.30;1.00;;;;;;5048503;28;20022;-59
2022/10/29 06:10:52;;;;;;;14.15;9.95;;;16.30;1.00;;;;;;5048760;28;20032;-59
2022/10/29 06:13:20;;;;;;;17.90;10.77;;;16.30;1.00;;;;;;5048156;28;20025;-60
2022/10/29 06:15:46;;;;;;;15.18;10.43;;;16.30;1.00;;;;;;5047109;28;20375;-59
2022/10/29 06:18:12;;;;;;;17.02;11.07;;;16.30;1.00;;;;;;5052454;28;20055;-60
2022/10/29 06:20:39;;;;;;;18.90;11.35;;;16.30;1.00;;;;;;5048973;28;20022;-59
2022/10/29 06:23:05;;;;;;;19.60;10.77;;;16.30;1.00;;;;;;5048586;28;20094;-59
2022/10/29 06:25:31;;;;;;;17.85;10.27;;;16.30;1.00;;;;;;5054123;28;20029;-60
2022/10/29 06:28:01;;;;;;;16.63;9.70;;;16.30;1.00;;;;;;5049365;28;20036;-59
2022/10/29 06:30:29;;;;;;;14.02;9.20;;;16.30;1.00;;;;;;5048947;28;20029;-59
2022/10/29 06:32:54;;;;;;;21.50;9.32;;;16.30;1.00;;;;;;5051086;28;20483;-59
2022/10/29 06:35:20;;;;;;;25.23;9.35;;;16.40;1.00;;;;;;5050845;28;20110;-59
2022/10/29 06:37:45;;;;;;;17.05;9.13;;;16.30;1.00;;;;;;5051787;28;20020;-60
2022/10/29 06:40:11;;;;;;;17.25;10.40;;;16.40;1.00;;;;;;5051610;28;20028;-59
2022/10/29 06:42:37;;;;;;;14.15;9.98;;;16.30;1.00;;;;;;5047583;28;20500;-60
2022/10/29 06:45:02;;;;;;;17.25;11.10;;;16.30;1.00;;;;;;5041937;28;20211;-60
2022/10/29 06:47:28;;;;;;;20.98;11.57;;;16.40;1.00;;;;;;5046516;28;20450;-60
2022/10/29 06:49:53;;;;;;;19.05;10.90;;;16.40;1.00;;;;;;5050663;28;20421;-59
2022/10/29 06:52:19;;;;;;;14.10;10.45;;;16.40;1.00;;;;;;5049526;28;20037;-59
2022/10/29 06:54:44;;;;;;;17.83;11.95;;;16.40;1.00;;;;;;5051648;28;20056;-60
2022/10/29 06:57:10;;;;;;;19.27;12.45;;;16.40;1.00;;;;;;5050910;28;20036;-60
2022/10/29 06:59:36;;;;;;;18.48;11.90;;;16.50;1.00;;;;;;5049974;28;20020;-59
2022/10/29 07:02:01;;;;;;;20.70;11.90;;;16.50;1.00;;;;;;5047230;28;20025;-59
2022/10/29 07:04:27;;;;;;;20.00;11.10;;;16.50;1.00;;;;;;5050378;28;20104;-58
2022/10/29 07:06:52;;;;;;;18.98;9.93;;;16.50;1.00;;;;;;5049265;28;20390;-59
2022/10/29 07:09:18;;;;;;;17.83;10.30;;;16.50;1.00;;;;;;5054338;28;20025;-59
2022/10/29 07:11:43;;;;;;;17.70;11.65;;;16.50;1.00;;;;;;5046943;28;20033;-58
2022/10/29 07:14:09;;;;;;;19.35;12.00;;;16.50;1.00;;;;;;5050864;28;20037;-59
2022/10/29 07:16:35;;;;;;;16.60;12.07;;;16.50;1.00;;;;;;5051126;28;20068;-59
2022/10/29 07:22:23;;;;;;;20.80;12.25;;;16.60;1.00;;;;;;5047776;28;20036;-58
2022/10/29 07:24:49;;;;;;;17.63;11.82;;;16.50;1.00;;;;;;5051995;28;20478;-58
2022/10/29 07:27:14;;;;;;;17.27;11.45;;;16.60;1.00;;;;;;5049429;28;20032;-59
2022/10/29 07:29:40;;;;;;;19.75;10.43;;;16.60;1.00;;;;;;5050177;28;20485;-60
2022/10/29 07:32:06;;;;;;;20.08;11.18;;;16.60;1.00;;;;;;5049151;28;20534;-60
2022/10/29 07:34:31;;;;;;;15.95;11.07;;;16.60;1.00;;;;;;5050149;28;20387;-61
2022/10/29 07:36:57;;;;;;;17.45;12.38;;;16.60;1.00;;;;;;5045819;28;20021;-61
2022/10/29 07:39:22;;;;;;;17.35;11.27;;;16.60;1.00;;;;;;5050711;28;20029;-62
2022/10/29 07:41:48;;;;;;;17.95;10.30;;;16.60;1.00;;;;;;5042568;28;20499;-61
2022/10/29 07:44:14;;;;;;;21.73;10.68;;;16.60;1.00;;;;;;5052351;28;20040;-60
2022/10/29 07:46:39;;;;;;;19.55;12.25;;;16.60;1.00;;;;;;5053062;28;20025;-59
2022/10/29 07:49:05;;;;;;;16.80;11.35;;;16.70;1.00;;;;;;5051937;28;20013;-61
2022/10/29 07:51:31;;;;;;;19.20;12.35;;;16.70;1.00;;;;;;5052727;28;20039;-59
2022/10/29 07:53:56;;;;;;;20.17;12.02;;;16.70;1.00;;;;;;5050876;28;20025;-58
2022/10/29 07:56:22;;;;;;;22.00;11.77;;;16.80;1.00;;;;;;5053149;28;20029;-50
2022/10/29 07:58:47;;;;;;;20.17;11.52;;;16.80;1.00;;;;;;5052691;28;20478;-49
2022/10/29 08:01:13;;;;;;;21.08;13.10;;;16.80;1.00;;;;;;5050905;28;20111;-53
2022/10/29 08:03:38;;;;;;;19.10;12.43;;;16.80;1.00;;;;;;5049534;28;20376;-49
2022/10/29 08:06:04;;;;;;;15.70;12.57;;;16.90;1.00;;;;;;5054005;28;20065;-51
2022/10/29 08:08:30;;;;;;;20.15;13.45;;;16.90;1.00;;;;;;5049181;28;20100;-53
2022/10/29 08:11:00;;;;;;;20.05;13.50;;;16.90;1.00;;;;;;5051803;28;20075;-52
2022/10/29 08:13:26;;;;;;;18.33;14.52;;;17.00;1.00;;;;;;5051689;28;20021;-55
2022/10/29 08:15:52;;;;;;;21.13;14.93;;;17.00;1.00;;;;;;5050915;28;20032;-49
2022/10/29 08:18:17;;;;;;;21.75;13.82;;;17.00;1.00;;;;;;5051835;28;20021;-46
2022/10/29 08:20:43;;;;;;;23.35;15.65;;;17.00;1.00;;;;;;5051560;28;20063;-46
2022/10/29 08:23:09;;;;;;;22.50;14.40;;;17.10;1.00;;;;;;5051513;28;20017;-48
2022/10/29 08:25:40;;;;;;;23.63;15.55;;;17.10;1.00;;;;;;5053187;28;20053;-52
2022/10/29 08:28:07;;;;;;;21.55;14.02;;;17.10;1.00;;;;;;5052647;28;20552;-54
2022/10/29 08:30:33;;;;;;;21.20;14.85;;;17.20;1.00;;;;;;5049639;28;20018;-53
2022/10/29 08:33:00;;;;;;;29.55;16.02;;;17.20;1.00;;;;;;5049739;28;20116;-52
2022/10/29 08:35:26;;;;;;;25.77;15.35;;;17.20;1.00;;;;;;5053504;28;20017;-51
2022/10/29 08:37:52;;;;;;;18.95;14.80;;;17.30;1.00;;;;;;5052778;28;20029;-50
2022/10/29 08:40:46;;;;;;;20.17;17.20;;;17.30;1.00;;;;;;5051405;28;20021;-50
2022/10/29 08:43:24;;;;;;;27.40;18.23;;;17.30;1.00;;;;;;5048289;28;20405;-55
2022/10/29 08:45:53;;;;;;;24.60;18.10;;;17.30;1.00;;;;;;5045271;28;20045;-48
2022/10/29 08:48:34;;;;;;;25.30;17.65;;;17.40;1.00;;;;;;5051606;28;20475;-52
2022/10/29 08:51:35;;;;;;;32.45;19.88;;;17.40;1.00;;;;;;5052167;28;20026;-50
2022/10/29 08:54:01;;;;;;;22.02;16.70;;;17.40;1.00;;;;;;5043036;28;20041;-51
2022/10/29 08:56:31;;;;;;;20.17;16.25;;;17.40;1.00;;;;;;5050184;28;20032;-53
2022/10/29 08:59:06;;;;;;;25.98;17.20;;;17.40;1.00;;;;;;5050405;28;20040;-53
2022/10/29 09:01:32;;;;;;;23.05;17.70;;;17.50;1.00;;;;;;5050572;28;20425;-53
2022/10/29 09:03:57;;;;;;;21.08;15.73;;;17.50;1.00;;;;;;5052198;28;20025;-53
2022/10/29 09:06:36;;;;;;;25.27;16.85;;;17.50;1.00;;;;;;5051323;28;20029;-50
2022/10/29 09:09:26;;;;;;;20.02;16.05;;;17.50;1.00;;;;;;5052351;28;20021;-52
2022/10/29 09:12:01;;;;;;;21.48;17.33;;;17.60;1.00;;;;;;5050784;28;20170;-51
2022/10/29 09:14:54;;;;;;;22.83;17.15;;;17.60;1.00;;;;;;5051397;28;20036;-51
2022/10/29 09:17:44;;;;;;;23.60;16.05;;;17.60;1.00;;;;;;5065014;28;20041;-53
2022/10/29 09:20:35;;;;;;;21.75;16.85;;;17.70;1.00;;;;;;5050802;28;20025;-51
2022/10/29 09:23:21;;;;;;;20.80;16.40;;;17.60;1.00;;;;;;5047596;28;20558;-50
2022/10/29 09:26:02;;;;;;;23.77;15.80;;;17.70;1.00;;;;;;5047127;28;20051;-50
2022/10/29 09:28:56;;;;;;;22.10;14.77;;;17.70;1.00;;;;;;5051807;28;20108;-50
2022/10/29 09:31:39;;;;;;;27.95;15.98;;;17.80;1.00;;;;;;5049013;28;20598;-52
2022/10/29 09:34:24;;;;;;;20.73;15.82;;;17.80;1.00;;;;;;5051979;28;20036;-50
2022/10/29 09:36:50;;;;;;;23.58;14.43;;;18.00;1.00;;;;;;5049911;28;20474;-49
2022/10/29 09:39:40;;;;;;;22.90;15.35;;;18.00;1.00;;;;;;5053831;28;20025;-48
2022/10/29 09:42:12;;;;;;;22.77;15.35;;;18.10;1.00;;;;;;5048859;28;20044;-53
2022/10/29 09:45:01;;;;;;;24.17;14.60;;;18.10;1.00;;;;;;5049320;28;20056;-55
2022/10/29 09:47:40;;;;;;;20.63;14.45;;;18.20;1.00;;;;;;5050788;28;20040;-57
2022/10/29 09:50:18;;;;;;;19.67;14.50;;;18.20;1.00;;;;;;5049975;28;20036;-56
2022/10/29 09:52:46;;;;;;;19.25;13.25;;;18.30;1.00;;;;;;5046992;28;20422;-56
2022/10/29 09:55:40;;;;;;;22.27;12.77;;;18.20;1.00;;;;;;5049735;28;20025;-55
2022/10/29 09:58:06;;;;;;;19.92;13.55;;;18.30;1.00;;;;;;5044238;28;20040;-56
2022/10/29 10:00:33;;;;;;;16.77;12.45;;;18.30;1.00;;;;;;5053132;28;20056;-55
2022/10/29 10:03:09;;;;;;;16.00;12.55;;;18.30;1.00;;;;;;5051224;28;20036;-57
2022/10/29 10:05:53;;;;;;;20.98;13.20;;;18.40;1.00;;;;;;5049924;28;20025;-57
2022/10/29 10:08:19;;;;;;;19.83;12.23;;;18.40;1.00;;;;;;5050960;28;20036;-55
2022/10/29 10:11:13;;;;;;;16.00;11.43;;;18.40;1.00;;;;;;5048494;28;20021;-53
2022/10/29 10:13:59;;;;;;;17.10;12.27;;;18.40;1.00;;;;;;5052525;28;20119;-55
2022/10/29 10:16:31;;;;;;;14.85;12.57;;;18.50;1.00;;;;;;5050882;28;20091;-56
2022/10/29 10:18:57;;;;;;;18.63;13.15;;;18.60;1.00;;;;;;5047603;28;20479;-52
2022/10/29 10:21:32;;;;;;;21.83;13.43;;;18.50;1.00;;;;;;5050642;28;20021;-57
2022/10/29 10:23:59;;;;;;;16.65;12.68;;;18.60;1.00;;;;;;5062316;28;20394;-54
2022/10/29 10:26:38;;;;;;;18.92;12.35;;;18.60;1.00;;;;;;5049027;28;20037;-57
2022/10/29 10:29:04;;;;;;;19.55;13.05;;;18.60;1.00;;;;;;5052181;28;20117;-53
2022/10/29 10:31:29;;;;;;;19.52;12.73;;;18.70;1.00;;;;;;5051272;28;20020;-55
2022/10/29 10:33:55;;;;;;;18.65;11.60;;;18.70;1.00;;;;;;5049797;28;20025;-54
2022/10/29 10:36:23;;;;;;;14.45;11.48;;;18.80;1.00;;;;;;5050947;28;20024;-54
2022/10/29 10:38:52;;;;;;;19.15;10.30;;;18.80;1.00;;;;;;5050010;28;20036;-52
2022/10/29 10:41:30;;;;;;;19.48;10.77;;;19.00;1.00;;;;;;5047301;28;20112;-54
2022/10/29 10:43:59;;;;;;;23.90;13.18;;;19.00;1.00;;;;;;5051979;28;20032;-53
2022/10/29 10:46:30;;;;;;;21.58;12.10;;;19.00;1.00;;;;;;5048933;28;20038;-53
2022/10/29 10:48:58;;;;;;;21.33;12.15;;;19.20;1.00;;;;;;5048094;28;20022;-53
2022/10/29 10:51:29;;;;;;;18.67;12.30;;;19.30;1.00;;;;;;5048839;28;20032;-57
2022/10/29 10:53:55;;;;;;;24.63;12.82;;;19.30;1.00;;;;;;5047831;28;20036;-58
2022/10/29 10:56:21;;;;;;;19.08;11.85;;;19.20;1.00;;;;;;5050076;28;20059;-57
2022/10/29 10:58:54;;;;;;;17.73;10.55;;;19.30;1.00;;;;;;5050380;28;20021;-57
2022/10/29 11:01:29;;;;;;;12.80;9.40;;;19.30;1.00;;;;;;5051348;28;20029;-56
2022/10/29 11:04:08;;;;;;;17.83;11.10;;;19.50;1.00;;;;;;5049961;28;20116;-57
2022/10/29 11:06:40;;;;;;;15.52;9.73;;;19.50;1.00;;;;;;5047128;28;20037;-53
2022/10/29 11:09:05;;;;;;;10.82;8.98;;;19.60;1.00;;;;;;5047699;28;20029;-56
2022/10/29 11:12:10;;;;;;;13.15;9.00;;;19.70;1.00;;;;;;5049254;28;20107;-56
2022/10/29 11:15:03;;;;;;;14.10;9.68;;;19.70;1.00;;;;;;5047136;28;20376;-56
2022/10/29 11:17:56;;;;;;;16.17;9.43;;;19.70;1.00;;;;;;5049775;28;20159;-57
2022/10/29 11:20:30;;;;;;;14.63;9.82;;;19.70;1.00;;;;;;5050146;28;20050;-54
2022/10/29 11:23:07;;;;;;;13.80;9.63;;;19.70;1.00;;;;;;5053402;28;20025;-52
2022/10/29 11:25:43;;;;;;;15.82;9.93;;;19.70;1.00;;;;;;5053621;28;20025;-54
2022/10/29 11:28:28;;;;;;;15.52;9.32;;;19.80;1.00;;;;;;5052655;28;20068;-55
2022/10/29 11:31:08;;;;;;;17.92;9.23;;;19.80;1.00;;;;;;5053054;28;20445;-52
2022/10/29 11:33:49;;;;;;;13.35;9.63;;;19.90;1.00;;;;;;5054142;28;20044;-57
2022/10/29 11:36:28;;;;;;;10.68;8.50;;;19.80;1.00;;;;;;5051479;28;20491;-60
2022/10/29 11:39:09;;;;;;;15.43;8.38;;;19.80;1.00;;;;;;5048047;28;20486;-55
2022/10/29 11:41:56;;;;;;;15.40;8.82;;;19.90;1.00;;;;;;5051084;28;20036;-57
2022/10/29 11:44:21;;;;;;;13.77;7.63;;;19.80;1.00;;;;;;5049773;28;20063;-57
2022/10/29 11:47:21;;;;;;;11.25;8.70;;;19.90;1.00;;;;;;5056924;28;20036;-55
2022/10/29 11:50:26;;;;;;;14.05;8.50;;;19.90;1.00;;;;;;5051017;28;20060;-55
2022/10/29 11:53:14;;;;;;;13.25;8.23;;;19.90;1.00;;;;;;5046733;28;20054;-55
2022/10/29 11:55:53;;;;;;;14.38;8.07;;;19.90;1.00;;;;;;5051187;28;20124;-56
2022/10/29 11:58:44;;;;;;;16.90;8.45;;;20.10;1.00;;;;;;5049158;28;20475;-51
2022/10/29 12:01:22;;;;;;;13.27;8.93;;;20.10;1.00;;;;;;5054875;28;20021;-52
2022/10/29 12:03:56;;;;;;;14.40;8.48;;;20.30;1.00;;;;;;5050877;28;20013;-55
2022/10/29 12:06:24;;;;;;;12.88;7.90;;;20.30;1.00;;;;;;5054083;28;20445;-51
2022/10/29 12:09:09;;;;;;;13.35;8.00;;;20.40;1.00;;;;;;5055104;28;20070;-52
2022/10/29 12:11:53;;;;;;;12.13;7.03;;;20.50;1.00;;;;;;5053024;28;20037;-54
2022/10/29 12:14:34;;;;;;;13.07;6.90;;;20.40;1.00;;;;;;5056104;28;20095;-57
2022/10/29 12:17:16;;;;;;;15.25;7.38;;;20.60;1.00;;;;;;5052083;28;20139;-55
2022/10/29 12:20:12;;;;;;;13.75;6.90;;;20.70;1.00;;;;;;5050443;28;20179;-58
2022/10/29 12:22:53;;;;;;;10.93;7.13;;;20.70;1.00;;;;;;5050821;28;20071;-58
2022/10/29 12:25:24;;;;;;;11.23;7.50;;;20.60;1.00;;;;;;5047105;28;20160;-58
2022/10/29 12:28:18;;;;;;;8.75;6.80;;;20.80;1.00;;;;;;5050522;28;20037;-57
2022/10/29 12:31:12;;;;;;;11.13;6.78;;;20.60;1.00;;;;;;5051692;28;20061;-57
2022/10/29 12:33:44;;;;;;;10.02;6.57;;;20.80;1.00;;;;;;5051273;28;20092;-58
2022/10/29 12:36:31;;;;;;;13.63;7.93;;;20.60;1.00;;;;;;5055144;28;20057;-58
2022/10/29 12:38:58;;;;;;;13.38;6.97;;;20.80;1.00;;;;;;5052068;28;20021;-58
2022/10/29 12:41:44;;;;;;;12.55;6.43;;;20.90;1.00;;;;;;5050912;28;20025;-58
2022/10/29 12:44:18;;;;;;;15.82;7.10;;;21.10;1.00;;;;;;5054406;28;20082;-56
2022/10/29 12:47:01;;;;;;;13.18;6.30;;;21.20;1.00;;;;;;5049816;28;20098;-58
2022/10/29 12:49:36;;;;;;;13.93;7.40;;;21.00;1.00;;;;;;5053311;28;20036;-58
2022/10/29 12:52:09;;;;;;;15.25;6.90;;;21.10;1.00;;;;;;5053236;28;20532;-57
2022/10/29 12:54:44;;;;;;;13.82;6.72;;;21.20;1.00;;;;;;5050702;28;20048;-57
2022/10/29 12:57:13;;;;;;;13.00;7.82;;;21.30;1.00;;;;;;5050286;28;20025;-55
2022/10/29 12:59:40;;;;;;;12.10;7.75;;;21.30;1.00;;;;;;5051736;28;20060;-58
2022/10/29 13:02:25;;;;;;;13.50;8.52;;;21.10;1.00;;;;;;5045564;28;20056;-57
2022/10/29 13:05:09;;;;;;;13.30;8.52;;;21.30;1.00;;;;;;5049454;28;20025;-57
2022/10/29 13:07:57;;;;;;;10.70;7.75;;;21.40;1.00;;;;;;5050191;28;20048;-59
2022/10/29 13:10:28;;;;;;;13.95;9.10;;;21.40;1.00;;;;;;5041887;28;20405;-58